createdAt,value
2022-10-22T00:04:15.922Z,9.95
2022-10-22T00:11:18.560Z,10.10
2022-10-22T00:18:20.481Z,10.82
2022-10-22T00:25:22.405Z,11.40
2022-10-22T00:32:24.110Z,12.23
2022-10-22T00:39:26.745Z,11.68
2022-10-22T00:46:28.717Z,11.95
2022-10-22T00:53:33.197Z,11.63
2022-10-22T01:00:35.174Z,12.00
2022-10-22T01:07:46.132Z,12.05
2022-10-22T01:14:48.335Z,12.02
2022-10-22T01:21:57.048Z,12.55
2022-10-22T01:29:05.497Z,13.13
2022-10-22T01:36:08.123Z,12.18
2022-10-22T01:43:10.948Z,11.90
2022-10-22T01:50:21.819Z,13.30
2022-10-22T01:57:30.956Z,13.80
2022-10-22T02:04:35.768Z,13.32
2022-10-22T02:11:38.276Z,13.02
2022-10-22T02:18:41.694Z,13.10
2022-10-22T02:25:47.846Z,13.65
2022-10-22T02:33:09.792Z,14.00
2022-10-22T02:40:11.704Z,12.70
2022-10-22T02:47:13.397Z,13.75
2022-10-22T02:54:15.534Z,14.10
2022-10-22T03:01:17.461Z,13.10
2022-10-22T03:08:19.416Z,14.10
2022-10-22T03:15:21.163Z,13.70
2022-10-22T03:22:27.873Z,14.15
2022-10-22T03:29:31.721Z,13.60
2022-10-22T03:36:33.882Z,13.23
2022-10-22T03:43:38.754Z,14.65
2022-10-22T03:50:40.539Z,14.93
2022-10-22T03:57:43.369Z,15.20
2022-10-22T04:04:45.193Z,15.05
2022-10-22T04:11:46.887Z,14.05
2022-10-22T04:18:49.424Z,14.25
2022-10-22T04:25:51.480Z,14.05
2022-10-22T04:32:53.956Z,14.98
2022-10-22T04:39:58.097Z,16.05
2022-10-22T04:47:00.225Z,15.40
2022-10-22T04:54:02.005Z,16.02
2022-10-22T05:01:35.734Z,14.98
2022-10-22T05:08:40.613Z,14.80
2022-10-22T05:15:42.797Z,15.75
2022-10-22T05:22:44.629Z,15.48
2022-10-22T05:29:46.548Z,16.13
2022-10-22T05:36:48.458Z,16.83
2022-10-22T05:43:50.579Z,16.27
2022-10-22T05:50:52.399Z,15.65
2022-10-22T05:57:54.181Z,15.88
2022-10-22T06:04:56.125Z,15.85
2022-10-22T06:11:58.487Z,16.88
2022-10-22T06:19:02.285Z,16.92
2022-10-22T06:26:04.899Z,15.00
2022-10-22T06:33:06.805Z,16.10
2022-10-22T06:40:08.816Z,17.33
2022-10-22T06:47:10.794Z,16.40
2022-10-22T06:54:13.492Z,15.80
2022-10-22T07:01:16.036Z,15.65
2022-10-22T07:08:18.021Z,14.35
2022-10-22T07:15:19.842Z,14.05
2022-10-22T07:22:21.981Z,13.85
2022-10-22T07:29:23.832Z,13.68
2022-10-22T07:36:25.792Z,13.90
2022-10-22T07:43:27.790Z,14.48
2022-10-22T07:50:29.691Z,13.65
2022-10-22T07:57:32.241Z,15.10
2022-10-22T08:04:34.160Z,15.38
2022-10-22T08:11:35.948Z,16.38
2022-10-22T08:18:39.075Z,17.10
2022-10-22T08:25:40.897Z,17.02
2022-10-22T08:32:42.736Z,26.08
2022-10-22T08:39:44.950Z,22.20
2022-10-22T08:46:52.702Z,23.45
2022-10-22T08:54:20.072Z,22.40
2022-10-22T09:01:23.740Z,18.23
2022-10-22T09:08:25.618Z,17.27
2022-10-22T09:15:27.978Z,18.95
2022-10-22T09:22:38.700Z,17.00
2022-10-22T09:29:40.991Z,15.50
2022-10-22T09:36:42.746Z,14.77
2022-10-22T09:43:47.202Z,16.50
2022-10-22T09:50:50.142Z,16.13
2022-10-22T09:57:55.893Z,16.23
2022-10-22T10:04:58.063Z,15.85
2022-10-22T10:12:05.546Z,16.00
2022-10-22T10:19:07.265Z,15.77
2022-10-22T10:26:19.759Z,16.73
2022-10-22T10:33:31.058Z,14.52
2022-10-22T10:40:48.531Z,16.35
2022-10-22T10:47:53.304Z,15.80
2022-10-22T10:54:55.289Z,15.93
2022-10-22T11:02:03.122Z,13.50
2022-10-22T11:09:28.378Z,17.58
2022-10-22T11:16:37.098Z,18.73
2022-10-22T11:23:59.038Z,19.70
2022-10-22T11:31:05.422Z,13.77
2022-10-22T11:38:07.802Z,18.40
2022-10-22T11:45:15.812Z,17.02
2022-10-22T11:52:25.452Z,19.58
2022-10-22T11:59:41.304Z,20.38
2022-10-22T12:06:55.159Z,20.58
2022-10-22T12:14:15.141Z,20.60
2022-10-22T12:21:17.449Z,19.85
2022-10-22T12:28:20.824Z,16.83
2022-10-22T12:35:28.866Z,17.50
2022-10-22T12:50:49.732Z,14.98
2022-10-22T12:57:52.541Z,16.77
2022-10-22T13:05:14.275Z,17.88
2022-10-22T13:12:26.208Z,17.60
2022-10-22T13:19:38.189Z,19.15
2022-10-22T13:26:40.971Z,20.90
2022-10-22T13:33:46.667Z,22.27
2022-10-22T13:40:48.704Z,22.88
2022-10-22T13:47:54.485Z,24.52
2022-10-22T13:54:56.444Z,24.23
2022-10-22T14:01:58.162Z,28.38
2022-10-22T14:09:02.188Z,29.52
2022-10-22T14:16:06.205Z,27.30
2022-10-22T14:30:22.551Z,30.00
2022-10-22T14:37:25.236Z,31.42
2022-10-22T14:44:27.248Z,28.38
2022-10-22T14:51:29.057Z,28.10
2022-10-22T14:58:31.731Z,27.88
2022-10-22T15:05:33.728Z,29.08
2022-10-22T15:12:35.519Z,32.03
2022-10-22T15:19:37.488Z,28.98
2022-10-22T15:26:39.514Z,31.95
2022-10-22T15:33:42.300Z,36.83
2022-10-22T15:40:44.730Z,34.67
2022-10-22T15:47:47.705Z,33.78
2022-10-22T15:54:50.758Z,36.13
2022-10-22T16:01:52.921Z,34.72
2022-10-22T16:08:55.318Z,34.83
2022-10-22T16:15:57.168Z,36.38
2022-10-22T16:22:59.216Z,36.35
2022-10-22T16:30:01.463Z,35.75
2022-10-22T16:37:03.805Z,39.67
2022-10-22T16:44:06.916Z,39.45
2022-10-22T16:51:11.551Z,32.10
2022-10-22T16:58:18.629Z,31.35
2022-10-22T17:05:21.769Z,32.70
2022-10-22T17:12:23.875Z,32.88
2022-10-22T17:19:26.318Z,35.92
2022-10-22T17:26:28.691Z,36.60
2022-10-22T17:33:32.849Z,34.70
2022-10-22T17:40:43.842Z,31.48
2022-10-22T17:47:46.373Z,34.75
2022-10-22T17:54:49.511Z,36.28
2022-10-22T18:01:54.750Z,33.35
2022-10-22T18:08:59.355Z,31.75
2022-10-22T18:16:03.062Z,27.77
2022-10-22T18:23:05.745Z,31.73
2022-10-22T18:30:08.276Z,21.55
2022-10-22T18:37:12.440Z,27.40
2022-10-22T18:44:18.134Z,27.83
2022-10-22T18:51:20.872Z,29.10
2022-10-22T18:58:23.110Z,26.48
2022-10-22T19:05:25.823Z,25.95
2022-10-22T19:12:27.688Z,26.15
2022-10-22T19:19:29.831Z,23.85
2022-10-22T19:26:32.355Z,23.38
2022-10-22T19:33:35.527Z,23.73
2022-10-22T19:40:37.575Z,24.02
2022-10-22T19:47:40.300Z,22.90
2022-10-22T19:54:45.101Z,23.98
2022-10-22T20:01:46.972Z,25.15
2022-10-22T20:08:51.028Z,20.40
2022-10-22T20:15:57.903Z,18.70
2022-10-22T20:23:04.354Z,19.75
2022-10-22T20:30:07.647Z,22.05
2022-10-22T20:37:10.056Z,20.92
2022-10-22T20:44:14.135Z,20.77
2022-10-22T20:51:16.082Z,21.02
2022-10-22T20:58:18.126Z,20.63
2022-10-22T21:05:20.053Z,22.27
2022-10-22T21:12:21.895Z,21.58
2022-10-22T21:19:25.040Z,17.52
2022-10-22T21:26:26.985Z,20.50
2022-10-22T21:33:29.088Z,20.40
2022-10-22T21:40:32.099Z,20.98
2022-10-22T21:47:34.047Z,19.15
2022-10-22T21:54:37.880Z,20.55
2022-10-22T22:01:39.783Z,16.58
2022-10-22T22:08:43.306Z,18.92
2022-10-22T22:15:49.250Z,17.25
2022-10-22T22:22:52.186Z,18.08
2022-10-22T22:29:54.607Z,15.43
2022-10-22T22:36:56.547Z,16.65
2022-10-22T22:43:58.518Z,16.48
2022-10-22T22:51:02.212Z,16.55
2022-10-22T22:58:04.031Z,17.10
2022-10-22T23:05:06.183Z,14.82
2022-10-22T23:12:08.062Z,12.10
2022-10-22T23:19:10.385Z,14.80
2022-10-22T23:26:13.355Z,12.43
2022-10-22T23:33:16.659Z,13.82
2022-10-22T23:40:18.643Z,13.82
2022-10-22T23:47:20.437Z,13.13
2022-10-22T23:54:22.259Z,13.40
